sensor_id;sensor_type;location;lat;lon;timestamp;pressure;altitude;pressure_sealevel;temperature;humidity
54910;BME280;63189;51.240;9.964;2024-02-14T00:02:16;98076.84;;;4.19;100.00
54910;BME280;63189;51.240;9.964;2024-02-14T00:04:41;98071.69;;;4.18;100.00
54910;BME280;63189;51.240;9.964;2024-02-14T00:07:07;98064.78;;;4.18;100.00
54910;BME280;63189;51.240;9.964;2024-02-14T00:09:32;98070.78;;;4.22;100.00
54910;BME280;63189;51.240;9.964;2024-02-14T00:11:57;98056.22;;;4.12;100.00
54910;BME280;63189;51.240;9.964;2024-02-14T00:14:23;98070.78;;;4.25;100.00
54910;BME280;63189;51.240;9.964;2024-02-14T00:16:48;98068.19;;;4.23;100.00
54910;BME280;63189;51.240;9.964;2024-02-14T00:19:13;98064.75;;;4.24;100.00
54910;BME280;63189;51.240;9.964;2024-02-14T00:21:39;98061.34;;;4.19;100.00
54910;BME280;63189;51.240;9.964;2024-02-14T00:24:05;98054.44;;;4.21;100.00
54910;BME280;63189;51.240;9.964;2024-02-14T00:26:31;98058.75;;;4.22;100.00
54910;BME280;63189;51.240;9.964;2024-02-14T00:28:56;98059.63;;;4.21;100.00
54910;BME280;63189;51.240;9.964;2024-02-14T00:31:22;98046.72;;;4.21;100.00
54910;BME280;63189;51.240;9.964;2024-02-14T00:33:47;98054.44;;;4.24;100.00
54910;BME280;63189;51.240;9.964;2024-02-14T00:36:12;98051.84;;;4.24;100.00
54910;BME280;63189;51.240;9.964;2024-02-14T00:38:38;98053.56;;;4.27;100.00
54910;BME280;63189;51.240;9.964;2024-02-14T00:41:03;98044.13;;;4.27;100.00
54910;BME280;63189;51.240;9.964;2024-02-14T00:43:29;98046.69;;;4.30;100.00
54910;BME280;63189;51.240;9.964;2024-02-14T00:45:54;98038.06;;;4.33;100.00
54910;BME280;63189;51.240;9.964;2024-02-14T00:48:22;98041.50;;;4.30;100.00
54910;BME280;63189;51.240;9.964;2024-02-14T00:50:47;98044.06;;;4.37;100.00
54910;BME280;63189;51.240;9.964;2024-02-14T00:53:12;98027.72;;;4.33;99.95
54910;BME280;63189;51.240;9.964;2024-02-14T00:55:38;98028.63;;;4.27;100.00
54910;BME280;63189;51.240;9.964;2024-02-14T00:58:04;98026.03;;;4.29;99.53
54910;BME280;63189;51.240;9.964;2024-02-14T01:00:29;98033.78;;;4.30;99.69
54910;BME280;63189;51.240;9.964;2024-02-14T01:02:54;98020.88;;;4.30;100.00
54910;BME280;63189;51.240;9.964;2024-02-14T01:05:21;98031.16;;;4.33;99.48
54910;BME280;63189;51.240;9.964;2024-02-14T01:07:46;98032.88;;;4.36;99.91
54910;BME280;63189;51.240;9.964;2024-02-14T01:10:11;98030.31;;;4.33;99.88
54910;BME280;63189;51.240;9.964;2024-02-14T01:12:37;98026.88;;;4.32;99.28
54910;BME280;63189;51.240;9.964;2024-02-14T01:15:02;98031.16;;;4.37;99.60
54910;BME280;63189;51.240;9.964;2024-02-14T01:17:28;98030.28;;;4.41;99.42
54910;BME280;63189;51.240;9.964;2024-02-14T01:19:53;98025.97;;;4.41;99.73
54910;BME280;63189;51.240;9.964;2024-02-14T01:22:18;98018.22;;;4.43;99.59
54910;BME280;63189;51.240;9.964;2024-02-14T01:24:44;98015.66;;;4.37;98.99
54910;BME280;63189;51.240;9.964;2024-02-14T01:27:10;98010.50;;;4.41;99.44
54910;BME280;63189;51.240;9.964;2024-02-14T01:29:35;98009.59;;;4.44;99.60
54910;BME280;63189;51.240;9.964;2024-02-14T01:32:01;98007.06;;;4.41;100.00
54910;BME280;63189;51.240;9.964;2024-02-14T01:34:26;98004.47;;;4.41;100.00
54910;BME280;63189;51.240;9.964;2024-02-14T01:36:53;98007.91;;;4.43;99.58
54910;BME280;63189;51.240;9.964;2024-02-14T01:39:19;98002.72;;;4.43;99.78
54910;BME280;63189;51.240;9.964;2024-02-14T01:41:47;97995.00;;;4.43;100.00
54910;BME280;63189;51.240;9.964;2024-02-14T01:44:14;97997.56;;;4.43;100.00
54910;BME280;63189;51.240;9.964;2024-02-14T01:46:41;97990.72;;;4.39;100.00
54910;BME280;63189;51.240;9.964;2024-02-14T01:49:08;97991.59;;;4.39;100.00
54910;BME280;63189;51.240;9.964;2024-02-14T01:51:35;97983.81;;;4.41;99.91
54910;BME280;63189;51.240;9.964;2024-02-14T01:54:02;97983.81;;;4.41;100.00
54910;BME280;63189;51.240;9.964;2024-02-14T01:56:29;97982.09;;;4.43;99.36
54910;BME280;63189;51.240;9.964;2024-02-14T01:58:55;97970.00;;;4.48;99.31
54910;BME280;63189;51.240;9.964;2024-02-14T02:01:21;97964.84;;;4.45;97.99
54910;BME280;63189;51.240;9.964;2024-02-14T02:03:48;97968.28;;;4.47;97.79
54910;BME280;63189;51.240;9.964;2024-02-14T02:06:14;97964.81;;;4.48;97.06
54910;BME280;63189;51.240;9.964;2024-02-14T02:08:44;97969.13;;;4.50;97.11
54910;BME280;63189;51.240;9.964;2024-02-14T02:11:09;97969.97;;;4.54;96.25
54910;BME280;63189;51.240;9.964;2024-02-14T02:13:35;97966.50;;;4.55;96.62
54910;BME280;63189;51.240;9.964;2024-02-14T02:16:00;97969.94;;;4.55;96.22
54910;BME280;63189;51.240;9.964;2024-02-14T02:18:30;97974.25;;;4.59;96.45
54910;BME280;63189;51.240;9.964;2024-02-14T02:20:56;97969.94;;;4.57;95.64
54910;BME280;63189;51.240;9.964;2024-02-14T02:23:22;97957.91;;;4.59;95.34
54910;BME280;63189;51.240;9.964;2024-02-14T02:25:47;97967.34;;;4.61;96.00
54910;BME280;63189;51.240;9.964;2024-02-14T02:28:13;97963.88;;;4.62;95.03
54910;BME280;63189;51.240;9.964;2024-02-14T02:30:39;97948.44;;;4.59;94.33
54910;BME280;63189;51.240;9.964;2024-02-14T02:33:05;97958.69;;;4.66;94.47
54910;BME280;63189;51.240;9.964;2024-02-14T02:35:32;97956.13;;;4.66;94.73
54910;BME280;63189;51.240;9.964;2024-02-14T02:37:58;97956.97;;;4.66;94.07
54910;BME280;63189;51.240;9.964;2024-02-14T02:40:24;97950.94;;;4.70;94.02
54910;BME280;63189;51.240;9.964;2024-02-14T02:42:49;97955.22;;;4.71;93.85
54910;BME280;63189;51.240;9.964;2024-02-14T02:45:16;97945.75;;;4.73;94.22
54910;BME280;63189;51.240;9.964;2024-02-14T02:47:41;97947.44;;;4.74;93.90
54910;BME280;63189;51.240;9.964;2024-02-14T02:50:07;97944.84;;;4.76;93.50
54910;BME280;63189;51.240;9.964;2024-02-14T02:52:33;97940.50;;;4.79;93.56
54910;BME280;63189;51.240;9.964;2024-02-14T02:54:59;97946.50;;;4.84;93.82
54910;BME280;63189;51.240;9.964;2024-02-14T02:57:25;97947.38;;;4.85;93.79
54910;BME280;63189;51.240;9.964;2024-02-14T02:59:52;97937.94;;;4.81;93.94
54910;BME280;63189;51.240;9.964;2024-02-14T03:02:17;97931.88;;;4.83;94.16
54910;BME280;63189;51.240;9.964;2024-02-14T03:04:44;97931.84;;;4.88;93.99
54910;BME280;63189;51.240;9.964;2024-02-14T03:07:10;97930.09;;;4.91;93.80
54910;BME280;63189;51.240;9.964;2024-02-14T03:09:36;97930.97;;;4.92;94.72
54910;BME280;63189;51.240;9.964;2024-02-14T03:12:05;97930.91;;;4.95;94.21
54910;BME280;63189;51.240;9.964;2024-02-14T03:14:31;97928.31;;;4.97;94.30
54910;BME280;63189;51.240;9.964;2024-02-14T03:17:02;97925.72;;;4.98;94.09
54910;BME280;63189;51.240;9.964;2024-02-14T03:19:28;97917.13;;;4.96;93.87
54910;BME280;63189;51.240;9.964;2024-02-14T03:21:55;97920.53;;;5.00;94.56
54910;BME280;63189;51.240;9.964;2024-02-14T03:24:20;97917.09;;;5.01;93.94
54910;BME280;63189;51.240;9.964;2024-02-14T03:26:46;97927.38;;;5.07;93.67
54910;BME280;63189;51.240;9.964;2024-02-14T03:29:11;97925.63;;;5.09;93.47
54910;BME280;63189;51.240;9.964;2024-02-14T03:31:37;97926.50;;;5.08;94.52
54910;BME280;63189;51.240;9.964;2024-02-14T03:34:02;97915.31;;;5.06;93.86
54910;BME280;63189;51.240;9.964;2024-02-14T03:36:28;97917.00;;;5.08;94.08
54910;BME280;63189;51.240;9.964;2024-02-14T03:38:55;97911.81;;;5.14;93.63
54910;BME280;63189;51.240;9.964;2024-02-14T03:41:21;97904.03;;;5.16;94.35
54910;BME280;63189;51.240;9.964;2024-02-14T03:43:46;97899.75;;;5.13;94.08
54910;BME280;63189;51.240;9.964;2024-02-14T03:46:11;97915.25;;;5.15;93.83
54910;BME280;63189;51.240;9.964;2024-02-14T03:48:38;97920.38;;;5.18;93.69
54910;BME280;63189;51.240;9.964;2024-02-14T03:51:03;97909.16;;;5.19;93.56
54910;BME280;63189;51.240;9.964;2024-02-14T03:53:29;97909.16;;;5.22;94.15
54910;BME280;63189;51.240;9.964;2024-02-14T03:55:54;97901.41;;;5.19;93.59
54910;BME280;63189;51.240;9.964;2024-02-14T03:58:19;97912.56;;;5.24;94.47
54910;BME280;63189;51.240;9.964;2024-02-14T04:00:51;97903.09;;;5.20;94.36
54910;BME280;63189;51.240;9.964;2024-02-14T04:03:17;97918.63;;;5.23;93.95
54910;BME280;63189;51.240;9.964;2024-02-14T04:05:43;97928.06;;;5.24;94.13
54910;BME280;63189;51.240;9.964;2024-02-14T04:08:08;97928.09;;;5.22;93.90
54910;BME280;63189;51.240;9.964;2024-02-14T04:10:37;97929.78;;;5.25;94.21
54910;BME280;63189;51.240;9.964;2024-02-14T04:13:04;97925.50;;;5.24;94.08
54910;BME280;63189;51.240;9.964;2024-02-14T04:15:30;97921.16;;;5.26;94.96
54910;BME280;63189;51.240;9.964;2024-02-14T04:17:55;97907.31;;;5.30;95.02
54910;BME280;63189;51.240;9.964;2024-02-14T04:20:21;97902.16;;;5.30;94.80
54910;BME280;63189;51.240;9.964;2024-02-14T04:22:46;97907.34;;;5.27;95.11
54910;BME280;63189;51.240;9.964;2024-02-14T04:25:12;97909.03;;;5.30;96.20
54910;BME280;63189;51.240;9.964;2024-02-14T04:27:37;97915.06;;;5.30;95.56
54910;BME280;63189;51.240;9.964;2024-02-14T04:30:03;97909.03;;;5.30;95.70
54910;BME280;63189;51.240;9.964;2024-02-14T04:32:29;97896.13;;;5.30;95.18
54910;BME280;63189;51.240;9.964;2024-02-14T04:34:54;97897.00;;;5.32;95.85
54910;BME280;63189;51.240;9.964;2024-02-14T04:37:19;97888.34;;;5.34;96.22
54910;BME280;63189;51.240;9.964;2024-02-14T04:39:45;97893.50;;;5.34;95.78
54910;BME280;63189;51.240;9.964;2024-02-14T04:42:11;97892.59;;;5.38;96.09
54910;BME280;63189;51.240;9.964;2024-02-14T04:44:36;97890.91;;;5.34;95.73
54910;BME280;63189;51.240;9.964;2024-02-14T04:47:02;97893.47;;;5.37;96.43
54910;BME280;63189;51.240;9.964;2024-02-14T04:49:28;97889.16;;;5.38;96.39
54910;BME280;63189;51.240;9.964;2024-02-14T04:51:54;97897.78;;;5.37;96.32
54910;BME280;63189;51.240;9.964;2024-02-14T04:54:20;97896.03;;;5.39;96.34
54910;BME280;63189;51.240;9.964;2024-02-14T04:56:46;97881.38;;;5.39;96.35
54910;BME280;63189;51.240;9.964;2024-02-14T04:59:11;97888.25;;;5.43;96.68
54910;BME280;63189;51.240;9.964;2024-02-14T05:01:37;97870.16;;;5.40;96.41
54910;BME280;63189;51.240;9.964;2024-02-14T05:04:04;97871.03;;;5.42;96.80
54910;BME280;63189;51.240;9.964;2024-02-14T05:06:30;97875.31;;;5.43;96.24
54910;BME280;63189;51.240;9.964;2024-02-14T05:08:55;97883.03;;;5.46;96.81
54910;BME280;63189;51.240;9.964;2024-02-14T05:11:20;97876.13;;;5.47;96.98
54910;BME280;63189;51.240;9.964;2024-02-14T05:13:46;97877.94;;;5.39;97.12
54910;BME280;63189;51.240;9.964;2024-02-14T05:16:12;97897.66;;;5.47;97.86
54910;BME280;63189;51.240;9.964;2024-02-14T05:18:38;97884.75;;;5.46;98.28
54910;BME280;63189;51.240;9.964;2024-02-14T05:21:07;97888.16;;;5.49;98.46
54910;BME280;63189;51.240;9.964;2024-02-14T05:23:33;97889.00;;;5.53;98.48
54910;BME280;63189;51.240;9.964;2024-02-14T05:26:00;97874.34;;;5.54;98.58
54910;BME280;63189;51.240;9.964;2024-02-14T05:28:26;97893.25;;;5.56;99.01
54910;BME280;63189;51.240;9.964;2024-02-14T05:30:51;97885.56;;;5.53;99.08
54910;BME280;63189;51.240;9.964;2024-02-14T05:33:16;97895.81;;;5.57;99.23
54910;BME280;63189;51.240;9.964;2024-02-14T05:35:43;97900.16;;;5.57;99.68
54910;BME280;63189;51.240;9.964;2024-02-14T05:38:09;97903.59;;;5.57;100.00
54910;BME280;63189;51.240;9.964;2024-02-14T05:40:34;97901.84;;;5.58;100.00
54910;BME280;63189;51.240;9.964;2024-02-14T05:43:01;97891.50;;;5.58;100.00
54910;BME280;63189;51.240;9.964;2024-02-14T05:45:26;97903.56;;;5.59;100.00
54910;BME280;63189;51.240;9.964;2024-02-14T05:47:53;97899.25;;;5.59;100.00
54910;BME280;63189;51.240;9.964;2024-02-14T05:50:18;97897.50;;;5.60;100.00
54910;BME280;63189;51.240;9.964;2024-02-14T05:52:44;97894.03;;;5.65;100.00
54910;BME280;63189;51.240;9.964;2024-02-14T05:55:09;97894.06;;;5.59;100.00
54910;BME280;63189;51.240;9.964;2024-02-14T05:57:34;97899.22;;;5.61;100.00
54910;BME280;63189;51.240;9.964;2024-02-14T06:00:00;97894.09;;;5.58;100.00
54910;BME280;63189;51.240;9.964;2024-02-14T06:02:25;97892.38;;;5.58;100.00
54910;BME280;63189;51.240;9.964;2024-02-14T06:04:51;97882.84;;;5.62;100.00
54910;BME280;63189;51.240;9.964;2024-02-14T06:07:16;97882.03;;;5.58;100.00
54910;BME280;63189;51.240;9.964;2024-02-14T06:09:41;97888.88;;;5.61;100.00
54910;BME280;63189;51.240;9.964;2024-02-14T06:12:07;97900.09;;;5.63;100.00
54910;BME280;63189;51.240;9.964;2024-02-14T06:14:32;97906.97;;;5.64;100.00
54910;BME280;63189;51.240;9.964;2024-02-14T06:16:59;97910.41;;;5.64;100.00
54910;BME280;63189;51.240;9.964;2024-02-14T06:19:25;97904.41;;;5.61;100.00
54910;BME280;63189;51.240;9.964;2024-02-14T06:21:50;97906.97;;;5.64;100.00
54910;BME280;63189;51.240;9.964;2024-02-14T06:24:15;97914.72;;;5.62;100.00
54910;BME280;63189;51.240;9.964;2024-02-14T06:26:41;97905.25;;;5.63;100.00
54910;BME280;63189;51.240;9.964;2024-02-14T06:29:06;97900.06;;;5.64;100.00
54910;BME280;63189;51.240;9.964;2024-02-14T06:31:31;97889.75;;;5.63;100.00
54910;BME280;63189;51.240;9.964;2024-02-14T06:33:57;97899.19;;;5.62;100.00
54910;BME280;63189;51.240;9.964;2024-02-14T06:36:22;97896.56;;;5.67;100.00
54910;BME280;63189;51.240;9.964;2024-02-14T06:38:47;97913.84;;;5.65;100.00
54910;BME280;63189;51.240;9.964;2024-02-14T06:41:13;97913.84;;;5.66;100.00
54910;BME280;63189;51.240;9.964;2024-02-14T06:43:38;97915.59;;;5.63;100.00
54910;BME280;63189;51.240;9.964;2024-02-14T06:46:05;97905.28;;;5.60;100.00
54910;BME280;63189;51.240;9.964;2024-02-14T06:48:30;97914.78;;;5.58;100.00
54910;BME280;63189;51.240;9.964;2024-02-14T06:50:56;97917.31;;;5.64;100.00
54910;BME280;63189;51.240;9.964;2024-02-14T06:53:22;97925.03;;;5.67;100.00
54910;BME280;63189;51.240;9.964;2024-02-14T06:55:47;97927.63;;;5.67;100.00
54910;BME280;63189;51.240;9.964;2024-02-14T06:58:12;97931.09;;;5.66;100.00
54910;BME280;63189;51.240;9.964;2024-02-14T07:00:38;97932.81;;;5.65;100.00
54910;BME280;63189;51.240;9.964;2024-02-14T07:03:03;97935.44;;;5.64;100.00
54910;BME280;63189;51.240;9.964;2024-02-14T07:05:29;97945.69;;;5.70;100.00
54910;BME280;63189;51.240;9.964;2024-02-14T07:07:55;97949.16;;;5.67;100.00
54910;BME280;63189;51.240;9.964;2024-02-14T07:10:20;97949.97;;;5.72;100.00
54910;BME280;63189;51.240;9.964;2024-02-14T07:12:46;97949.09;;;5.72;100.00
54910;BME280;63189;51.240;9.964;2024-02-14T07:15:11;97951.69;;;5.72;100.00
54910;BME280;63189;51.240;9.964;2024-02-14T07:17:37;97953.38;;;5.77;100.00
54910;BME280;63189;51.240;9.964;2024-02-14T07:20:04;97959.38;;;5.79;100.00
54910;BME280;63189;51.240;9.964;2024-02-14T07:22:30;97953.38;;;5.76;100.00
54910;BME280;63189;51.240;9.964;2024-02-14T07:24:59;97949.97;;;5.74;100.00
54910;BME280;63189;51.240;9.964;2024-02-14T07:27:25;97954.19;;;5.79;100.00
54910;BME280;63189;51.240;9.964;2024-02-14T07:29:50;97968.81;;;5.82;100.00
54910;BME280;63189;51.240;9.964;2024-02-14T07:32:17;97967.94;;;5.83;100.00
54910;BME280;63189;51.240;9.964;2024-02-14T07:34:42;97958.47;;;5.85;100.00
54910;BME280;63189;51.240;9.964;2024-02-14T07:37:08;97964.50;;;5.86;100.00
54910;BME280;63189;51.240;9.964;2024-02-14T07:39:35;97966.19;;;5.87;100.00
54910;BME280;63189;51.240;9.964;2024-02-14T07:42:04;97965.28;;;5.89;100.00
54910;BME280;63189;51.240;9.964;2024-02-14T07:44:30;97970.44;;;5.95;100.00
54910;BME280;63189;51.240;9.964;2024-02-14T07:46:56;97955.81;;;5.90;100.00
54910;BME280;63189;51.240;9.964;2024-02-14T07:49:21;97968.72;;;5.96;100.00
54910;BME280;63189;51.240;9.964;2024-02-14T07:51:46;97962.66;;;5.97;100.00
54910;BME280;63189;51.240;9.964;2024-02-14T07:54:12;97964.41;;;5.95;100.00
54910;BME280;63189;51.240;9.964;2024-02-14T07:56:37;97973.00;;;5.98;100.00
54910;BME280;63189;51.240;9.964;2024-02-14T07:59:03;97968.66;;;6.00;100.00
54910;BME280;63189;51.240;9.964;2024-02-14T08:01:30;97961.75;;;5.99;100.00
54910;BME280;63189;51.240;9.964;2024-02-14T08:03:56;97960.91;;;5.99;100.00
54910;BME280;63189;51.240;9.964;2024-02-14T08:06:21;97966.88;;;6.05;100.00
54910;BME280;63189;51.240;9.964;2024-02-14T08:08:46;97954.81;;;6.04;100.00
54910;BME280;63189;51.240;9.964;2024-02-14T08:11:16;97973.72;;;6.10;100.00
54910;BME280;63189;51.240;9.964;2024-02-14T08:13:42;97970.19;;;6.14;100.00
54910;BME280;63189;51.240;9.964;2024-02-14T08:16:08;97967.63;;;6.15;100.00
54910;BME280;63189;51.240;9.964;2024-02-14T08:18:33;97962.44;;;6.15;100.00
54910;BME280;63189;51.240;9.964;2024-02-14T08:20:58;97958.94;;;6.19;100.00
54910;BME280;63189;51.240;9.964;2024-02-14T08:23:23;97971.88;;;6.19;100.00
54910;BME280;63189;51.240;9.964;2024-02-14T08:25:49;97969.22;;;6.22;100.00
54910;BME280;63189;51.240;9.964;2024-02-14T08:28:14;97976.06;;;6.28;100.00
54910;BME280;63189;51.240;9.964;2024-02-14T08:30:40;97971.72;;;6.30;100.00
54910;BME280;63189;51.240;9.964;2024-02-14T08:33:06;97970.03;;;6.29;100.00
54910;BME280;63189;51.240;9.964;2024-02-14T08:35:31;97977.75;;;6.30;100.00
54910;BME280;63189;51.240;9.964;2024-02-14T08:37:56;97972.50;;;6.35;100.00
54910;BME280;63189;51.240;9.964;2024-02-14T08:40:22;97967.34;;;6.36;100.00
54910;BME280;63189;51.240;9.964;2024-02-14T08:42:47;97978.41;;;6.45;100.00
54910;BME280;63189;51.240;9.964;2024-02-14T08:45:13;97974.06;;;6.48;100.00
54910;BME280;63189;51.240;9.964;2024-02-14T08:47:38;97976.63;;;6.51;100.00
54910;BME280;63189;51.240;9.964;2024-02-14T08:50:04;97977.41;;;6.55;100.00
54910;BME280;63189;51.240;9.964;2024-02-14T08:52:30;97986.91;;;6.56;100.00
54910;BME280;63189;51.240;9.964;2024-02-14T08:54:55;97975.75;;;6.51;100.00
54910;BME280;63189;51.240;9.964;2024-02-14T08:57:20;97984.34;;;6.54;100.00
54910;BME280;63189;51.240;9.964;2024-02-14T08:59:46;97987.78;;;6.55;100.00
54910;BME280;63189;51.240;9.964;2024-02-14T09:02:16;97982.59;;;6.55;100.00
54910;BME280;63189;51.240;9.964;2024-02-14T09:04:42;97979.97;;;6.56;100.00
54910;BME280;63189;51.240;9.964;2024-02-14T09:07:07;97982.53;;;6.61;100.00
54910;BME280;63189;51.240;9.964;2024-02-14T09:09:33;97979.09;;;6.59;100.00
54910;BME280;63189;51.240;9.964;2024-02-14T09:11:58;97991.16;;;6.61;100.00
54910;BME280;63189;51.240;9.964;2024-02-14T09:14:28;97990.22;;;6.65;100.00
54910;BME280;63189;51.240;9.964;2024-02-14T09:16:53;97993.66;;;6.68;100.00
54910;BME280;63189;51.240;9.964;2024-02-14T09:19:19;97988.44;;;6.71;100.00
54910;BME280;63189;51.240;9.964;2024-02-14T09:21:44;97981.56;;;6.68;100.00
54910;BME280;63189;51.240;9.964;2024-02-14T09:24:10;97990.13;;;6.73;100.00
54910;BME280;63189;51.240;9.964;2024-02-14T09:26:36;97997.84;;;6.76;100.00
54910;BME280;63189;51.240;9.964;2024-02-14T09:29:03;98009.06;;;6.78;100.00
54910;BME280;63189;51.240;9.964;2024-02-14T09:31:28;97998.69;;;6.78;100.00
54910;BME280;63189;51.240;9.964;2024-02-14T09:33:53;97997.75;;;6.82;100.00
54910;BME280;63189;51.240;9.964;2024-02-14T09:36:22;98004.69;;;6.80;100.00
54910;BME280;63189;51.240;9.964;2024-02-14T09:38:47;98006.41;;;6.81;100.00
54910;BME280;63189;51.240;9.964;2024-02-14T09:41:25;98009.75;;;6.89;100.00
54910;BME280;63189;51.240;9.964;2024-02-14T09:43:54;98005.44;;;6.87;100.00
54910;BME280;63189;51.240;9.964;2024-02-14T09:46:23;97996.75;;;6.92;100.00
54910;BME280;63189;51.240;9.964;2024-02-14T09:48:50;98007.88;;;6.99;100.00
54910;BME280;63189;51.240;9.964;2024-02-14T09:51:17;98013.88;;;7.01;100.00
54910;BME280;63189;51.240;9.964;2024-02-14T09:53:42;98014.78;;;7.00;100.00
54910;BME280;63189;51.240;9.964;2024-02-14T09:56:10;98014.69;;;7.05;100.00
54910;BME280;63189;51.240;9.964;2024-02-14T09:58:36;98006.03;;;7.06;100.00
54910;BME280;63189;51.240;9.964;2024-02-14T10:01:02;98008.59;;;7.07;100.00
54910;BME280;63189;51.240;9.964;2024-02-14T10:03:28;98008.59;;;7.07;100.00
54910;BME280;63189;51.240;9.964;2024-02-14T10:05:54;98009.50;;;7.05;100.00
54910;BME280;63189;51.240;9.964;2024-02-14T10:08:19;98008.59;;;7.07;100.00
54910;BME280;63189;51.240;9.964;2024-02-14T10:10:46;98026.69;;;7.12;100.00
54910;BME280;63189;51.240;9.964;2024-02-14T10:13:11;98007.72;;;7.08;100.00
54910;BME280;63189;51.240;9.964;2024-02-14T10:15:37;98015.47;;;7.11;100.00
54910;BME280;63189;51.240;9.964;2024-02-14T10:18:02;98012.91;;;7.10;100.00
54910;BME280;63189;51.240;9.964;2024-02-14T10:20:29;98015.44;;;7.13;100.00
54910;BME280;63189;51.240;9.964;2024-02-14T10:23:02;98023.22;;;7.13;100.00
54910;BME280;63189;51.240;9.964;2024-02-14T10:25:29;98017.13;;;7.15;100.00
54910;BME280;63189;51.240;9.964;2024-02-14T10:27:54;98029.22;;;7.15;100.00
54910;BME280;63189;51.240;9.964;2024-02-14T10:30:20;98031.75;;;7.18;100.00
54910;BME280;63189;51.240;9.964;2024-02-14T10:32:47;98026.56;;;7.18;100.00
54910;BME280;63189;51.240;9.964;2024-02-14T10:35:15;98026.53;;;7.21;100.00
54910;BME280;63189;51.240;9.964;2024-02-14T10:37:41;98029.97;;;7.23;100.00
54910;BME280;63189;51.240;9.964;2024-02-14T10:40:07;98031.66;;;7.26;100.00
54910;BME280;63189;51.240;9.964;2024-02-14T10:42:34;98042.91;;;7.24;100.00
54910;BME280;63189;51.240;9.964;2024-02-14T10:45:06;98035.09;;;7.26;100.00
54910;BME280;63189;51.240;9.964;2024-02-14T10:47:40;98044.63;;;7.26;100.00
54910;BME280;63189;51.240;9.964;2024-02-14T10:50:21;98027.38;;;7.23;100.00
54910;BME280;63189;51.240;9.964;2024-02-14T10:52:48;98033.38;;;7.25;100.00
54910;BME280;63189;51.240;9.964;2024-02-14T10:55:15;98033.31;;;7.28;100.00
54910;BME280;63189;51.240;9.964;2024-02-14T10:57:43;98034.25;;;7.26;100.00
54910;BME280;63189;51.240;9.964;2024-02-14T11:00:10;98041.09;;;7.30;100.00
54910;BME280;63189;51.240;9.964;2024-02-14T11:02:39;98036.81;;;7.27;100.00
54910;BME280;63189;51.240;9.964;2024-02-14T11:05:05;98029.00;;;7.30;100.00
54910;BME280;63189;51.240;9.964;2024-02-14T11:07:32;98037.56;;;7.34;100.00
54910;BME280;63189;51.240;9.964;2024-02-14T11:10:16;98040.13;;;7.35;100.00
54910;BME280;63189;51.240;9.964;2024-02-14T11:12:42;98040.13;;;7.35;100.00
54910;BME280;63189;51.240;9.964;2024-02-14T11:17:39;98047.84;;;7.41;100.00
54910;BME280;63189;51.240;9.964;2024-02-14T11:20:16;98040.91;;;7.42;100.00
54910;BME280;63189;51.240;9.964;2024-02-14T11:22:53;98052.94;;;7.46;100.00
54910;BME280;63189;51.240;9.964;2024-02-14T11:25:22;98052.94;;;7.46;100.00
54910;BME280;63189;51.240;9.964;2024-02-14T11:27:47;98046.81;;;7.48;100.00
54910;BME280;63189;51.240;9.964;2024-02-14T11:30:14;98040.75;;;7.49;100.00
54910;BME280;63189;51.240;9.964;2024-02-14T11:32:40;98047.59;;;7.55;100.00
54910;BME280;63189;51.240;9.964;2024-02-14T11:35:10;98044.16;;;7.53;100.00
54910;BME280;63189;51.240;9.964;2024-02-14T11:37:36;98045.09;;;7.50;100.00
54910;BME280;63189;51.240;9.964;2024-02-14T11:40:02;98047.56;;;7.57;100.00
54910;BME280;63189;51.240;9.964;2024-02-14T11:42:27;98049.28;;;7.58;100.00
54910;BME280;63189;51.240;9.964;2024-02-14T11:44:53;98049.22;;;7.62;100.00
54910;BME280;63189;51.240;9.964;2024-02-14T11:47:21;98035.44;;;7.57;100.00
54910;BME280;63189;51.240;9.964;2024-02-14T11:49:47;98051.81;;;7.61;100.00
54910;BME280;63189;51.240;9.964;2024-02-14T11:52:12;98042.31;;;7.61;100.00
54910;BME280;63189;51.240;9.964;2024-02-14T11:54:39;98049.13;;;7.67;100.00
54910;BME280;63189;51.240;9.964;2024-02-14T11:57:06;98030.19;;;7.60;100.00
54910;BME280;63189;51.240;9.964;2024-02-14T11:59:34;98040.44;;;7.68;100.00
54910;BME280;63189;51.240;9.964;2024-02-14T12:01:59;98045.66;;;7.66;100.00
54910;BME280;63189;51.240;9.964;2024-02-14T12:04:25;98047.38;;;7.67;100.00
54910;BME280;63189;51.240;9.964;2024-02-14T12:06:50;98054.28;;;7.68;100.00
54910;BME280;63189;51.240;9.964;2024-02-14T12:09:16;98044.78;;;7.67;100.00
54910;BME280;63189;51.240;9.964;2024-02-14T12:11:41;98048.13;;;7.74;100.00
54910;BME280;63189;51.240;9.964;2024-02-14T12:14:11;98042.13;;;7.70;100.00
54910;BME280;63189;51.240;9.964;2024-02-14T12:16:37;98048.09;;;7.75;100.00
54910;BME280;63189;51.240;9.964;2024-02-14T12:19:08;98054.16;;;7.76;100.00
54910;BME280;63189;51.240;9.964;2024-02-14T12:21:38;98048.16;;;7.72;100.00
54910;BME280;63189;51.240;9.964;2024-02-14T12:24:06;98051.53;;;7.77;100.00
54910;BME280;63189;51.240;9.964;2024-02-14T12:26:32;98043.81;;;7.74;100.00
54910;BME280;63189;51.240;9.964;2024-02-14T12:29:01;98045.44;;;7.78;100.00
54910;BME280;63189;51.240;9.964;2024-02-14T12:31:27;98048.94;;;7.77;100.00
54910;BME280;63189;51.240;9.964;2024-02-14T12:33:53;98048.00;;;7.81;100.00
54910;BME280;63189;51.240;9.964;2024-02-14T12:36:20;98051.41;;;7.85;100.00
54910;BME280;63189;51.240;9.964;2024-02-14T12:38:46;98058.31;;;7.85;100.00
54910;BME280;63189;51.240;9.964;2024-02-14T12:41:11;98059.97;;;7.89;100.00
54910;BME280;63189;51.240;9.964;2024-02-14T12:43:36;98066.88;;;7.90;100.00
54910;BME280;63189;51.240;9.964;2024-02-14T12:46:02;98061.69;;;7.90;100.00
54910;BME280;63189;51.240;9.964;2024-02-14T12:48:29;98059.91;;;7.92;100.00
54910;BME280;63189;51.240;9.964;2024-02-14T12:50:55;98070.28;;;7.93;100.00
54910;BME280;63189;51.240;9.964;2024-02-14T12:53:21;98065.91;;;7.95;100.00
54910;BME280;63189;51.240;9.964;2024-02-14T12:55:47;98051.19;;;7.96;100.00
54910;BME280;63189;51.240;9.964;2024-02-14T12:58:13;98054.59;;;7.99;100.00
54910;BME280;63189;51.240;9.964;2024-02-14T13:00:38;98049.34;;;8.01;100.00
54910;BME280;63189;51.240;9.964;2024-02-14T13:03:03;98052.81;;;8.03;100.00